Gainesville, Missouri
Current Conditions -  °F | °C
As of 1:53 AM on Thursday 23 Oct 2014 (Local Time) from KBPK Reporting Station
Clear Clear  
Wind Chill:   Ceiling: Unl
Heat Index:   Visibility: 10mi
Dew Point:   Wind: 3mph
Humidity: 80%   Direction: 100°E
Pressure: 30.18"   Gusts: NA
Location:  36.6°N, 92.43°W
Report Text: KBPK 230653Z AUTO 10003KT 10SM CLR 09/06 A3018 RMK AO2 SLP216 T00890056
Loading
Personal Weather Stations






























Interactive Weather Map
Tropical Storm Tracking
New forecast layout! Learn more

10-Day Weather Forecast

Advertisements
Track Severe Weather on mobile